»·PEaware :: BAW103 EGLL-CYYC

BAW103 :: EGLL-CYYC

FLIGHT INFORMATION

Flight Status: Arrived
Operator:
British Airways
More flights by this operator :: More flights under this callsign
Pilot: Andrew J. (13363)
Aircraft: BOEING 777-200
(B772)
More flights by this aircraft type
Origin: EGLL Heathrow
United Kingdom
Destination: CYYC Calgary Intl
Canada
More flights between these airports :: More routes between these airports
Route: WOBU3F WOBUN WELIN UN57 TNT UL28 RODOL UM65 TENSO REMSI GINGA GOMUP/M083F380 61N020W 64N030W 66N040W 67N050W DARUB/N0487F400 NCAD RIDOK DUDNI BIRKO3
File this flight plan on PilotEdge
Remarks:
Altitude:
(Current/Filed)
38,000ft
Speed:
(Current/Filed)
469kts
Departed: 21-Mar-18 12:14 AM
Arrived: 21-Mar-18 10:53 AM
Distance/Time
Traveled:
3784nm/10:39
Distance/Time
To Go:
Arrived

Flight Plot

Page will automatically refresh every two minutes.

Flight plan parsing failed; only flown route is shown


Map Options




Map Legend


Flown Route
Filed Route
Departure Airport
Arrival Airport
Navaid (VOR, NDB)
Fix

Horizontal Profiles

Position Reports

Time Latitude Longitude Heading Altitude Ground
Speed
20-Mar-18 23:49 51.469818 -0.482314 89 96ft 0kts
20-Mar-18 23:50 51.469818 -0.482314 89 96ft 0kts
20-Mar-18 23:51 51.469733 -0.483179 61 96ft 2kts
20-Mar-18 23:52 51.469357 -0.483563 359 96ft 0kts
20-Mar-18 23:53 51.469357 -0.483563 359 96ft 0kts
20-Mar-18 23:54 51.469357 -0.483563 359 96ft 0kts
20-Mar-18 23:55 51.469357 -0.483563 359 96ft 0kts
20-Mar-18 23:56 51.469358 -0.483563 359 96ft 0kts
20-Mar-18 23:57 51.469359 -0.483563 359 96ft 0kts
20-Mar-18 23:58 51.471265 -0.483584 0 96ft 8kts
20-Mar-18 23:59 51.473269 -0.483601 359 96ft 6kts
21-Mar-18 00:00 51.474737 -0.483401 46 96ft 4kts
21-Mar-18 00:01 51.474885 -0.480543 89 96ft 13kts
21-Mar-18 00:02 51.474919 -0.475431 89 96ft 9kts
21-Mar-18 00:03 51.474962 -0.470348 88 96ft 13kts
21-Mar-18 00:04 51.475153 -0.464225 87 96ft 12kts
21-Mar-18 00:05 51.475166 -0.459387 89 96ft 9kts
21-Mar-18 00:06 51.475271 -0.455567 90 96ft 7kts
21-Mar-18 00:07 51.475692 -0.451706 28 96ft 8kts
21-Mar-18 00:08 51.475988 -0.445881 88 96ft 13kts
21-Mar-18 00:09 51.475930 -0.440429 89 96ft 10kts
21-Mar-18 00:10 51.475935 -0.436210 88 96ft 8kts
21-Mar-18 00:11 51.477101 -0.433568 21 96ft 6kts
21-Mar-18 00:12 51.477691 -0.433985 268 96ft 6kts
21-Mar-18 00:13 51.477458 -0.488319 268 1157ft 190kts
21-Mar-18 00:14 51.486170 -0.578264 293 4128ft 234kts
21-Mar-18 00:15 51.523574 -0.671110 328 5992ft 258kts
21-Mar-18 00:16 51.593616 -0.688915 355 6209ft 254kts
21-Mar-18 00:17 51.666573 -0.698181 354 9883ft 265kts
21-Mar-18 00:18 51.745500 -0.706108 356 12952ft 315kts
21-Mar-18 00:19 51.838588 -0.715154 356 16577ft 346kts
21-Mar-18 00:20 51.937255 -0.724904 357 20332ft 362kts
21-Mar-18 00:21 52.039362 -0.744864 347 23698ft 379kts
21-Mar-18 00:22 52.142452 -0.797050 343 26742ft 397kts
21-Mar-18 00:23 52.246500 -0.867341 327 29516ft 419kts
21-Mar-18 00:24 52.334203 -0.999533 318 31805ft 438kts
21-Mar-18 00:25 52.417236 -1.143270 317 34438ft 432kts
21-Mar-18 00:26 52.499892 -1.287086 317 36302ft 434kts
21-Mar-18 00:27 52.597148 -1.396432 342 37864ft 425kts
21-Mar-18 00:28 52.709176 -1.459637 342 38554ft 416kts
21-Mar-18 00:29 52.817079 -1.524397 342 38554ft 413kts
21-Mar-18 00:30 52.924813 -1.590365 341 38552ft 413kts
21-Mar-18 00:31 53.032953 -1.656986 341 38549ft 414kts
21-Mar-18 00:32 53.133438 -1.751801 329 38532ft 417kts
21-Mar-18 00:33 53.231440 -1.855071 330 38528ft 417kts
21-Mar-18 00:34 53.332061 -1.951267 333 38522ft 415kts
21-Mar-18 00:35 53.432840 -2.046354 332 38520ft 416kts
21-Mar-18 00:36 53.533552 -2.143047 332 38515ft 416kts
21-Mar-18 00:37 53.621889 -2.265992 299 38513ft 433kts
21-Mar-18 00:38 53.659783 -2.460356 293 38520ft 437kts
21-Mar-18 00:39 53.701516 -2.652862 295 38523ft 435kts
21-Mar-18 00:40 53.744758 -2.843327 296 38527ft 435kts
21-Mar-18 00:41 53.787716 -3.034046 295 38525ft 434kts
21-Mar-18 00:42 53.830091 -3.225933 294 38525ft 434kts
21-Mar-18 00:43 53.872493 -3.416816 294 38524ft 433kts
21-Mar-18 00:44 53.913640 -3.608260 294 38522ft 432kts
21-Mar-18 00:45 53.955354 -3.799771 299 38519ft 428kts
21-Mar-18 00:46 54.029536 -3.951980 319 38513ft 419kts
21-Mar-18 00:47 54.112913 -4.090268 317 38501ft 419kts
21-Mar-18 00:48 54.195086 -4.232253 317 38498ft 419kts
21-Mar-18 00:49 54.277274 -4.372926 317 38497ft 419kts
21-Mar-18 00:50 54.359182 -4.515395 317 38493ft 419kts
21-Mar-18 00:51 54.440512 -4.658212 316 38493ft 418kts
21-Mar-18 00:52 54.521494 -4.801362 316 38491ft 418kts
21-Mar-18 00:53 54.602562 -4.945578 316 38489ft 417kts
21-Mar-18 00:54 54.683063 -5.089667 316 38475ft 417kts
21-Mar-18 00:55 54.763385 -5.234297 316 38473ft 417kts
21-Mar-18 00:56 54.843670 -5.379747 316 38471ft 416kts
21-Mar-18 00:57 54.923397 -5.525080 315 38466ft 416kts
21-Mar-18 00:58 55.003135 -5.671332 315 38457ft 415kts
21-Mar-18 00:59 55.082407 -5.817628 315 38439ft 415kts
21-Mar-18 01:00 55.161438 -5.964390 315 38433ft 415kts
21-Mar-18 01:01 55.240477 -6.112059 315 38425ft 414kts
21-Mar-18 01:02 55.318933 -6.259587 315 38418ft 414kts
21-Mar-18 01:03 55.397096 -6.407458 314 38414ft 413kts
21-Mar-18 01:04 55.475465 -6.556643 314 38406ft 414kts
21-Mar-18 01:05 55.553284 -6.705737 314 38405ft 413kts
21-Mar-18 01:06 55.630909 -6.855389 314 38405ft 413kts
21-Mar-18 01:07 55.708553 -7.006040 313 38389ft 413kts
21-Mar-18 01:08 55.785692 -7.156637 313 38377ft 412kts
21-Mar-18 01:09 55.862617 -7.307790 313 38356ft 412kts
21-Mar-18 01:10 55.939466 -7.459759 313 38358ft 412kts
21-Mar-18 01:11 56.015862 -7.611796 312 38352ft 411kts
21-Mar-18 01:12 56.092247 -7.764797 312 38347ft 411kts
21-Mar-18 01:13 56.168176 -7.917865 312 38345ft 411kts
21-Mar-18 01:14 56.243959 -8.071648 312 38337ft 412kts
21-Mar-18 01:15 56.319717 -8.226341 312 38345ft 411kts
21-Mar-18 01:16 56.395122 -8.381338 312 38333ft 412kts
21-Mar-18 01:17 56.470396 -8.537083 311 38322ft 412kts
21-Mar-18 01:18 56.545732 -8.693982 311 38307ft 412kts
21-Mar-18 01:19 56.620633 -8.851010 311 38295ft 412kts
21-Mar-18 01:20 56.695446 -9.008896 310 38285ft 413kts
21-Mar-18 01:21 56.770771 -9.167318 310 38281ft 413kts
21-Mar-18 01:22 56.844941 -9.326856 310 38279ft 412kts
21-Mar-18 01:23 56.918196 -9.488978 303 38279ft 413kts
21-Mar-18 01:24 56.954800 -9.688561 285 38264ft 418kts
21-Mar-18 01:25 56.984394 -9.894058 286 38265ft 417kts
21-Mar-18 01:26 57.034879 -10.082063 310 38266ft 415kts
21-Mar-18 01:27 57.113560 -10.236731 311 38263ft 414kts
21-Mar-18 01:28 57.190406 -10.394244 310 38262ft 414kts
21-Mar-18 01:29 57.267444 -10.552990 311 38260ft 414kts
21-Mar-18 01:30 57.344087 -10.711531 310 38258ft 414kts
21-Mar-18 01:31 57.420212 -10.871449 310 38257ft 415kts
21-Mar-18 01:32 57.496463 -11.033026 310 38255ft 415kts
21-Mar-18 01:33 57.572260 -11.194806 309 38227ft 414kts
21-Mar-18 01:34 57.647772 -11.357105 309 38222ft 415kts
21-Mar-18 01:35 57.723364 -11.520703 309 38218ft 415kts
21-Mar-18 01:36 57.798525 -11.684517 309 38172ft 414kts
21-Mar-18 01:37 57.873589 -11.849260 308 38126ft 415kts
21-Mar-18 01:38 57.948302 -12.014384 308 38123ft 415kts
21-Mar-18 01:39 58.022791 -12.180189 308 38120ft 415kts
21-Mar-18 01:40 58.097325 -12.347267 308 38118ft 415kts
21-Mar-18 01:41 58.171445 -12.514606 307 38115ft 415kts
21-Mar-18 01:42 58.245398 -12.682767 307 38113ft 416kts
21-Mar-18 01:43 58.319548 -12.852575 307 38109ft 416kts
21-Mar-18 01:44 58.393414 -13.022972 306 38106ft 419kts
21-Mar-18 01:45 58.467481 -13.195076 306 38022ft 420kts
21-Mar-18 01:46 58.541604 -13.368587 306 38015ft 420kts
21-Mar-18 01:47 58.615288 -13.542355 305 38009ft 421kts
21-Mar-18 01:48 58.689034 -13.717557 305 38002ft 421kts
21-Mar-18 01:49 58.762362 -13.893070 305 37996ft 421kts
21-Mar-18 01:50 58.835475 -14.069373 305 37991ft 422kts
21-Mar-18 01:51 58.908758 -14.247444 304 37985ft 422kts
21-Mar-18 01:52 58.981530 -14.425614 304 38003ft 422kts
21-Mar-18 01:53 59.054149 -14.604760 304 37999ft 423kts
21-Mar-18 01:54 59.126792 -14.785347 304 37992ft 423kts
21-Mar-18 01:55 59.198924 -14.966044 303 37985ft 423kts
21-Mar-18 01:56 59.271127 -15.148316 303 37979ft 423kts
21-Mar-18 01:57 59.342901 -15.330934 303 37927ft 423kts
21-Mar-18 01:58 59.414669 -15.514957 303 37915ft 424kts
21-Mar-18 01:59 59.485984 -15.699286 302 37908ft 424kts
21-Mar-18 02:00 59.545311 -15.853711 302 37900ft 425kts
21-Mar-18 02:01 59.628259 -16.071363 302 37892ft 425kts
21-Mar-18 02:02 59.698971 -16.258503 301 37884ft 425kts
21-Mar-18 02:03 59.757621 -16.414884 301 37879ft 425kts
21-Mar-18 02:04 59.828071 -16.604090 301 37872ft 425kts
21-Mar-18 02:05 59.909753 -16.825407 301 37864ft 425kts
21-Mar-18 02:06 59.967845 -16.984111 301 37859ft 425kts
21-Mar-18 02:07 60.037691 -17.176316 300 37853ft 428kts
21-Mar-18 02:08 60.118885 -17.401779 300 37846ft 428kts
21-Mar-18 02:09 60.176633 -17.563473 300 37841ft 428kts
21-Mar-18 02:10 60.245927 -17.758982 299 37836ft 428kts
21-Mar-18 02:11 60.314639 -17.954485 299 37832ft 428kts
21-Mar-18 02:12 60.383383 -18.151729 299 37835ft 428kts
21-Mar-18 02:13 60.451689 -18.349403 299 37829ft 429kts
21-Mar-18 02:14 60.519751 -18.548018 299 37824ft 430kts
21-Mar-18 02:15 60.587937 -18.748727 298 37819ft 431kts
21-Mar-18 02:16 60.655737 -18.950033 298 37801ft 432kts
21-Mar-18 02:17 60.723376 -19.152611 298 37796ft 433kts
21-Mar-18 02:18 60.791000 -19.356928 298 37792ft 433kts
21-Mar-18 02:19 60.858835 -19.561028 298 37790ft 433kts
21-Mar-18 02:20 60.925474 -19.767265 297 37784ft 434kts
21-Mar-18 02:21 60.992131 -19.975300 297 37780ft 434kts
21-Mar-18 02:22 61.064150 -20.177694 301 37776ft 440kts
21-Mar-18 02:23 61.137989 -20.379312 300 37751ft 440kts
21-Mar-18 02:24 61.211273 -20.583401 300 37747ft 441kts
21-Mar-18 02:25 61.285658 -20.785659 300 37746ft 441kts
21-Mar-18 02:26 61.359140 -20.990797 300 37743ft 441kts
21-Mar-18 02:27 61.432160 -21.197318 300 37740ft 443kts
21-Mar-18 02:28 61.504981 -21.405294 299 37738ft 444kts
21-Mar-18 02:29 61.577918 -21.615517 299 37737ft 445kts
21-Mar-18 02:30 61.650494 -21.826652 299 37723ft 446kts
21-Mar-18 02:31 61.722788 -22.038875 299 37721ft 447kts
21-Mar-18 02:32 61.795119 -22.253196 299 37703ft 447kts
21-Mar-18 02:33 61.866844 -22.467717 299 37701ft 447kts
21-Mar-18 02:34 61.938182 -22.683083 298 37701ft 447kts
21-Mar-18 02:35 62.009431 -22.900224 298 37696ft 447kts
21-Mar-18 02:36 62.080666 -23.119393 299 37697ft 451kts
21-Mar-18 02:37 62.152019 -23.341048 298 37695ft 452kts
21-Mar-18 02:38 62.222838 -23.563193 298 37693ft 452kts
21-Mar-18 02:39 62.293325 -23.786442 298 37689ft 452kts
21-Mar-18 02:40 62.363579 -24.011152 298 37688ft 452kts
21-Mar-18 02:41 62.433437 -24.236804 298 37687ft 453kts
21-Mar-18 02:42 62.502984 -24.463712 298 37687ft 453kts
21-Mar-18 02:43 62.572542 -24.692922 298 37686ft 455kts
21-Mar-18 02:44 62.641693 -24.923108 297 37686ft 456kts
21-Mar-18 02:45 62.710643 -25.154963 297 37682ft 457kts
21-Mar-18 02:46 62.779548 -25.389059 297 37681ft 458kts
21-Mar-18 02:47 62.847866 -25.623580 297 37681ft 458kts
21-Mar-18 02:48 62.915900 -25.859557 297 37681ft 459kts
21-Mar-18 02:49 62.983847 -26.097721 297 37681ft 460kts
21-Mar-18 02:50 63.051363 -26.336891 297 37712ft 461kts
21-Mar-18 02:51 63.118889 -26.578658 297 37712ft 461kts
21-Mar-18 02:52 63.185785 -26.820769 297 37711ft 462kts
21-Mar-18 02:53 63.252351 -27.064303 296 37710ft 463kts
21-Mar-18 02:54 63.318811 -27.310110 296 37709ft 463kts
21-Mar-18 02:55 63.384740 -27.556653 296 37707ft 464kts
21-Mar-18 02:56 63.450385 -27.804875 296 37706ft 465kts
21-Mar-18 02:57 63.515902 -28.055406 296 37705ft 466kts
21-Mar-18 02:58 63.580866 -28.306632 296 37704ft 466kts
21-Mar-18 02:59 63.645335 -28.558774 296 37695ft 466kts
21-Mar-18 03:00 63.709554 -28.812862 296 37694ft 466kts
21-Mar-18 03:01 63.773148 -29.067386 295 37692ft 466kts
21-Mar-18 03:02 63.836347 -29.323293 295 37693ft 466kts
21-Mar-18 03:03 63.900168 -29.580699 295 37690ft 467kts
21-Mar-18 03:04 63.962004 -29.840090 295 37696ft 468kts
21-Mar-18 03:05 64.024788 -30.100755 296 37694ft 468kts
21-Mar-18 03:06 64.088537 -30.359588 296 37693ft 468kts
21-Mar-18 03:07 64.151395 -30.620223 295 37691ft 468kts
21-Mar-18 03:08 64.215872 -30.880888 296 37676ft 469kts
21-Mar-18 03:09 64.279380 -31.142653 296 37673ft 469kts
21-Mar-18 03:10 64.341897 -31.406124 295 37672ft 469kts
21-Mar-18 03:11 64.404111 -31.671898 295 37672ft 469kts
21-Mar-18 03:12 64.465611 -31.937943 295 37672ft 469kts
21-Mar-18 03:13 64.526618 -32.205144 294 37671ft 469kts
21-Mar-18 03:14 64.587369 -32.474554 294 37670ft 469kts
21-Mar-18 03:15 64.647455 -32.744390 294 37670ft 470kts
21-Mar-18 03:16 64.707292 -33.016540 294 37670ft 470kts
21-Mar-18 03:17 64.766462 -33.289131 293 37670ft 470kts
21-Mar-18 03:18 64.825137 -33.562937 293 37669ft 470kts
21-Mar-18 03:19 64.883510 -33.838904 293 37669ft 470kts
21-Mar-18 03:20 64.941182 -34.115179 293 37669ft 470kts
21-Mar-18 03:21 64.998381 -34.392840 293 37666ft 470kts
21-Mar-18 03:22 65.055227 -34.672470 292 37669ft 471kts
21-Mar-18 03:23 65.111427 -34.952686 292 37668ft 471kts
21-Mar-18 03:24 65.167068 -35.233927 292 37668ft 471kts
21-Mar-18 03:25 65.222378 -35.517342 292 37669ft 471kts
21-Mar-18 03:26 65.276985 -35.801070 291 37668ft 471kts
21-Mar-18 03:27 65.331218 -36.086840 291 37668ft 471kts
21-Mar-18 03:28 65.384720 -36.372780 291 37669ft 471kts
21-Mar-18 03:29 65.437698 -36.659976 291 37669ft 471kts
21-Mar-18 03:30 65.490280 -36.949146 291 37669ft 471kts
21-Mar-18 03:31 65.542157 -37.238631 290 37669ft 470kts
21-Mar-18 03:32 65.593396 -37.528779 290 37669ft 470kts
21-Mar-18 03:33 65.644215 -37.820851 290 37669ft 470kts
21-Mar-18 03:34 65.694314 -38.113124 290 37669ft 469kts
21-Mar-18 03:35 65.743812 -38.406291 289 37666ft 469kts
21-Mar-18 03:36 65.792883 -38.701393 289 37670ft 469kts
21-Mar-18 03:37 65.841246 -38.996738 289 37670ft 469kts
21-Mar-18 03:38 65.889365 -39.293963 290 37671ft 470kts
21-Mar-18 03:39 65.937089 -39.590518 288 37672ft 468kts
21-Mar-18 03:40 65.983085 -39.889781 288 38182ft 472kts
21-Mar-18 03:41 66.026537 -40.192116 285 39678ft 467kts
21-Mar-18 03:42 66.065714 -40.495556 285 39675ft 465kts
21-Mar-18 03:43 66.104386 -40.799809 285 39676ft 465kts
21-Mar-18 03:44 66.145790 -41.103325 285 39678ft 465kts
21-Mar-18 03:45 66.185028 -41.407473 285 39679ft 465kts
21-Mar-18 03:46 66.223262 -41.712927 285 39681ft 465kts
21-Mar-18 03:47 66.260952 -42.020291 284 39683ft 465kts
21-Mar-18 03:48 66.297865 -42.327240 284 39686ft 464kts
21-Mar-18 03:49 66.334321 -42.636367 284 39689ft 464kts
21-Mar-18 03:50 66.369993 -42.944936 284 39691ft 464kts
21-Mar-18 03:51 66.405021 -43.254069 283 39694ft 464kts
21-Mar-18 03:52 66.439617 -43.565724 283 39698ft 464kts
21-Mar-18 03:53 66.473448 -43.876904 283 39701ft 464kts
21-Mar-18 03:54 66.506643 -44.188783 283 39704ft 464kts
21-Mar-18 03:55 66.539344 -44.502664 282 39708ft 464kts
21-Mar-18 03:56 66.571253 -44.815925 282 39713ft 463kts
21-Mar-18 03:57 66.602536 -45.129816 282 39716ft 463kts
21-Mar-18 03:58 66.633268 -45.445354 281 39720ft 463kts
21-Mar-18 03:59 66.663319 -45.761165 281 39742ft 464kts
21-Mar-18 04:00 66.692722 -46.077585 281 39744ft 463kts
21-Mar-18 04:01 66.721558 -46.395548 281 39745ft 463kts
21-Mar-18 04:02 66.749631 -46.712836 280 39747ft 463kts
21-Mar-18 04:03 66.777137 -47.031699 280 39748ft 462kts
21-Mar-18 04:04 66.803897 -47.350006 280 39749ft 462kts
21-Mar-18 04:05 66.830009 -47.668925 279 39750ft 462kts
21-Mar-18 04:06 66.855541 -47.989348 279 39751ft 462kts
21-Mar-18 04:07 66.880341 -48.309291 279 39753ft 461kts
21-Mar-18 04:08 66.904459 -48.629425 278 39754ft 461kts
21-Mar-18 04:09 66.928004 -48.951131 278 39753ft 461kts
21-Mar-18 04:10 66.951507 -49.272037 279 39753ft 461kts
21-Mar-18 04:11 66.973733 -49.593553 277 39757ft 460kts
21-Mar-18 04:12 66.994666 -49.917331 277 39756ft 460kts
21-Mar-18 04:13 67.008689 -50.241635 271 39758ft 459kts
21-Mar-18 04:14 67.015536 -50.567446 271 39758ft 459kts
21-Mar-18 04:15 67.022637 -50.894679 272 39758ft 459kts
21-Mar-18 04:16 67.032977 -51.220121 272 39757ft 459kts
21-Mar-18 04:17 67.040892 -51.547422 271 39758ft 459kts
21-Mar-18 04:18 67.047694 -51.873631 271 39759ft 459kts
21-Mar-18 04:19 67.053766 -52.199861 271 39761ft 459kts
21-Mar-18 04:20 67.059174 -52.527218 271 39764ft 459kts
21-Mar-18 04:21 67.063161 -52.799216 270 39764ft 459kts
21-Mar-18 04:22 67.067957 -53.179980 270 39767ft 459kts
21-Mar-18 04:23 67.070844 -53.453734 270 39769ft 459kts
21-Mar-18 04:24 67.074085 -53.835376 269 39771ft 459kts
21-Mar-18 04:25 67.075839 -54.108081 269 39773ft 459kts
21-Mar-18 04:26 67.077337 -54.436347 269 39774ft 459kts
21-Mar-18 04:27 67.078229 -54.818084 268 39776ft 459kts
21-Mar-18 04:28 67.078307 -55.090637 268 39777ft 459kts
21-Mar-18 04:29 67.077784 -55.418795 268 39779ft 459kts
21-Mar-18 04:30 67.076593 -55.745881 267 39780ft 459kts
21-Mar-18 04:31 67.074723 -56.074162 267 39769ft 459kts
21-Mar-18 04:32 67.072198 -56.400290 267 39770ft 458kts
21-Mar-18 04:33 67.069003 -56.726743 267 39771ft 458kts
21-Mar-18 04:34 67.065130 -57.053839 266 39773ft 458kts
21-Mar-18 04:35 67.060604 -57.379806 266 39774ft 458kts
21-Mar-18 04:36 67.055420 -57.705274 266 39775ft 458kts
21-Mar-18 04:37 67.049548 -58.031905 265 39774ft 458kts
21-Mar-18 04:38 67.043037 -58.357069 265 39778ft 457kts
21-Mar-18 04:39 67.035875 -58.681581 265 39779ft 457kts
21-Mar-18 04:40 67.028034 -59.006806 265 39780ft 456kts
21-Mar-18 04:41 67.020751 -59.330959 265 39778ft 456kts
21-Mar-18 04:42 67.011004 -59.655473 264 39782ft 456kts
21-Mar-18 04:43 67.000709 -59.978010 264 39792ft 455kts
21-Mar-18 04:44 66.993526 -60.301152 265 39789ft 456kts
21-Mar-18 04:45 66.985776 -60.625123 265 39789ft 456kts
21-Mar-18 04:46 66.977531 -60.947917 266 39789ft 456kts
21-Mar-18 04:47 66.971751 -61.270824 265 39789ft 455kts
21-Mar-18 04:48 66.963440 -61.593659 264 39790ft 455kts
21-Mar-18 04:49 66.954207 -61.915166 264 39792ft 454kts
21-Mar-18 04:50 66.944279 -62.236404 264 39791ft 454kts
21-Mar-18 04:51 66.933682 -62.557956 264 39791ft 454kts
21-Mar-18 04:52 66.922469 -62.878301 263 39791ft 454kts
21-Mar-18 04:53 66.910589 -63.198678 263 39790ft 455kts
21-Mar-18 04:54 66.898039 -63.519416 262 39790ft 453kts
21-Mar-18 04:55 66.884912 -63.838124 262 39879ft 453kts
21-Mar-18 04:56 66.871092 -64.157445 262 40006ft 453kts
21-Mar-18 04:57 66.856697 -64.475582 262 40034ft 453kts
21-Mar-18 04:58 66.841663 -64.793057 261 40035ft 453kts
21-Mar-18 04:59 66.825933 -65.111330 261 40036ft 453kts
21-Mar-18 05:00 66.809623 -65.428060 261 40038ft 453kts
21-Mar-18 05:01 66.792679 -65.744389 261 40040ft 453kts
21-Mar-18 05:02 66.775055 -66.061133 260 40058ft 453kts
21-Mar-18 05:03 66.756863 -66.376314 260 40057ft 453kts
21-Mar-18 05:04 66.738033 -66.691174 260 40056ft 453kts
21-Mar-18 05:05 66.718528 -67.006337 260 40053ft 452kts
21-Mar-18 05:06 66.698504 -67.319305 259 40050ft 452kts
21-Mar-18 05:07 66.677789 -67.632821 259 40047ft 451kts
21-Mar-18 05:08 66.656550 -67.944405 259 40025ft 451kts
21-Mar-18 05:09 66.634703 -68.255348 259 40017ft 451kts
21-Mar-18 05:10 66.612151 -68.567004 258 40009ft 451kts
21-Mar-18 05:11 66.589065 -68.877055 258 39960ft 451kts
21-Mar-18 05:12 66.565353 -69.186713 258 39963ft 451kts
21-Mar-18 05:13 66.542031 -69.497251 257 39965ft 451kts
21-Mar-18 05:14 66.516304 -69.805184 257 39972ft 451kts
21-Mar-18 05:15 66.491638 -70.114189 259 39961ft 451kts
21-Mar-18 05:16 66.470740 -70.424061 259 39961ft 452kts
21-Mar-18 05:17 66.448392 -70.732692 258 39964ft 450kts
21-Mar-18 05:18 66.427477 -71.041938 260 39967ft 450kts
21-Mar-18 05:19 66.406239 -71.349719 259 40025ft 450kts
21-Mar-18 05:20 66.383371 -71.657415 258 40030ft 450kts
21-Mar-18 05:21 66.359863 -71.963225 258 40041ft 449kts
21-Mar-18 05:22 66.335745 -72.268345 258 40058ft 450kts
21-Mar-18 05:23 66.310925 -72.574112 258 40064ft 450kts
21-Mar-18 05:24 66.285602 -72.878129 257 40070ft 450kts
21-Mar-18 05:25 66.259643 -73.182013 257 40076ft 450kts
21-Mar-18 05:26 66.233020 -73.486078 256 40077ft 449kts
21-Mar-18 05:27 66.205952 -73.787852 256 40083ft 449kts
21-Mar-18 05:28 66.178325 -74.088701 256 40089ft 449kts
21-Mar-18 05:29 66.149972 -74.390382 256 40095ft 449kts
21-Mar-18 05:30 66.121143 -74.690259 256 40101ft 449kts
21-Mar-18 05:31 66.091651 -74.990284 255 40107ft 449kts
21-Mar-18 05:32 66.061649 -75.288913 255 40112ft 449kts
21-Mar-18 05:33 66.031083 -75.586714 255 40116ft 449kts
21-Mar-18 05:34 65.999858 -75.884611 255 40128ft 449kts
21-Mar-18 05:35 65.968143 -76.180995 254 40132ft 449kts
21-Mar-18 05:36 65.935870 -76.476545 254 40135ft 449kts
21-Mar-18 05:37 65.902951 -76.772053 254 40146ft 449kts
21-Mar-18 05:38 65.869553 -77.066035 254 40148ft 449kts
21-Mar-18 05:39 65.835638 -77.358878 253 40151ft 449kts
21-Mar-18 05:40 65.800998 -77.652346 253 40153ft 449kts
21-Mar-18 05:41 65.765953 -77.943749 253 40154ft 449kts
21-Mar-18 05:42 65.730293 -78.234858 253 40189ft 449kts
21-Mar-18 05:43 65.694005 -78.525769 252 40189ft 449kts
21-Mar-18 05:44 65.657321 -78.814662 252 40190ft 449kts
21-Mar-18 05:45 65.619950 -79.103830 252 40203ft 449kts
21-Mar-18 05:46 65.583152 -79.391755 252 40208ft 449kts
21-Mar-18 05:47 65.544375 -79.678135 251 40208ft 449kts
21-Mar-18 05:48 65.504899 -79.964479 251 40209ft 449kts
21-Mar-18 05:49 65.460223 -80.244694 247 40232ft 449kts
21-Mar-18 05:50 65.412557 -80.521832 247 40231ft 449kts
21-Mar-18 05:51 65.364737 -80.798891 248 40230ft 448kts
21-Mar-18 05:52 65.319376 -81.076898 248 40229ft 448kts
21-Mar-18 05:53 65.272122 -81.352321 247 40228ft 448kts
21-Mar-18 05:54 65.223931 -81.627265 247 40227ft 448kts
21-Mar-18 05:55 65.175336 -81.900364 247 40248ft 448kts
21-Mar-18 05:56 65.126272 -82.172270 247 40254ft 448kts
21-Mar-18 05:57 65.076552 -82.444057 246 40251ft 448kts
21-Mar-18 05:58 65.026532 -82.713801 246 40247ft 448kts
21-Mar-18 05:59 64.975841 -82.983521 246 40244ft 448kts
21-Mar-18 06:00 64.924835 -83.251329 246 40241ft 448kts
21-Mar-18 06:01 64.873367 -83.518028 245 40245ft 448kts
21-Mar-18 06:02 64.821259 -83.784540 245 40243ft 448kts
21-Mar-18 06:03 64.768857 -84.049108 245 40243ft 447kts
21-Mar-18 06:04 64.715984 -84.312655 245 40244ft 447kts
21-Mar-18 06:05 64.662477 -84.575993 245 40247ft 448kts
21-Mar-18 06:06 64.608674 -84.837466 244 40251ft 448kts
21-Mar-18 06:07 64.554426 -85.097825 244 40256ft 448kts
21-Mar-18 06:08 64.499360 -85.358851 244 40262ft 449kts
21-Mar-18 06:09 64.444066 -85.617738 243 40269ft 448kts
21-Mar-18 06:10 64.388134 -85.876432 243 40277ft 448kts
21-Mar-18 06:11 64.331960 -86.133107 243 40285ft 448kts
21-Mar-18 06:12 64.275344 -86.388715 243 40300ft 448kts
21-Mar-18 06:13 64.218075 -86.644199 243 40345ft 448kts
21-Mar-18 06:14 64.160510 -86.897971 242 40399ft 449kts
21-Mar-18 06:15 64.102459 -87.150895 242 40416ft 450kts
21-Mar-18 06:16 64.043670 -87.404054 242 40417ft 450kts
21-Mar-18 06:17 63.984646 -87.655281 242 40418ft 449kts
21-Mar-18 06:18 63.925233 -87.905272 242 40417ft 450kts
21-Mar-18 06:19 63.865158 -88.155164 241 40417ft 450kts
21-Mar-18 06:20 63.804916 -88.402924 241 40418ft 449kts
21-Mar-18 06:21 63.744199 -88.649837 241 40418ft 449kts
21-Mar-18 06:22 63.682897 -88.896355 241 40419ft 449kts
21-Mar-18 06:23 63.621405 -89.140910 241 40419ft 449kts
21-Mar-18 06:24 63.559280 -89.385551 241 40420ft 449kts
21-Mar-18 06:25 63.497496 -89.628915 240 40419ft 450kts
21-Mar-18 06:26 63.434236 -89.869877 240 40422ft 450kts
21-Mar-18 06:27 63.371358 -90.111924 241 40421ft 450kts
21-Mar-18 06:28 63.309190 -90.353245 240 40419ft 450kts
21-Mar-18 06:29 63.246367 -90.593126 240 40419ft 450kts
21-Mar-18 06:30 63.184459 -90.835209 241 40419ft 450kts
21-Mar-18 06:31 63.122146 -91.075140 240 40418ft 450kts
21-Mar-18 06:32 63.058910 -91.313495 240 40414ft 450kts
21-Mar-18 06:33 62.995008 -91.551416 240 40408ft 450kts
21-Mar-18 06:34 62.930903 -91.787520 239 40403ft 451kts
21-Mar-18 06:35 62.866113 -92.023634 239 40400ft 451kts
21-Mar-18 06:36 62.811990 -92.218992 239 40400ft 451kts
21-Mar-18 06:37 62.735580 -92.491941 239 40400ft 451kts
21-Mar-18 06:38 62.669817 -92.724243 239 40398ft 451kts
21-Mar-18 06:39 62.603703 -92.955400 238 40397ft 451kts
21-Mar-18 06:40 62.548072 -93.148095 238 40396ft 451kts
21-Mar-18 06:41 62.469944 -93.415980 238 40396ft 452kts
21-Mar-18 06:42 62.402535 -93.644598 238 40396ft 451kts
21-Mar-18 06:43 62.345841 -93.835114 238 40397ft 452kts
21-Mar-18 06:44 62.277688 -94.062048 237 40397ft 452kts
21-Mar-18 06:45 62.197728 -94.325448 237 40391ft 452kts
21-Mar-18 06:46 62.140048 -94.513584 237 40389ft 452kts
21-Mar-18 06:47 62.070788 -94.737464 237 40387ft 452kts
21-Mar-18 06:48 62.001228 -94.960133 237 40385ft 452kts
21-Mar-18 06:49 61.930974 -95.182848 236 40383ft 453kts
21-Mar-18 06:50 61.860520 -95.404042 236 40382ft 452kts
21-Mar-18 06:51 61.789586 -95.624611 236 40380ft 452kts
21-Mar-18 06:52 61.718559 -95.843372 236 40379ft 452kts
21-Mar-18 06:53 61.647153 -96.061218 236 40378ft 452kts
21-Mar-18 06:54 61.575172 -96.278754 235 40399ft 452kts
21-Mar-18 06:55 61.503061 -96.494642 235 40397ft 453kts
21-Mar-18 06:56 61.430457 -96.709982 235 40394ft 453kts
21-Mar-18 06:57 61.357381 -96.924712 235 40390ft 453kts
21-Mar-18 06:58 61.284202 -97.137760 235 40385ft 453kts
21-Mar-18 06:59 61.210651 -97.349928 234 40380ft 453kts
21-Mar-18 07:00 61.136510 -97.561849 234 40342ft 453kts
21-Mar-18 07:01 61.062320 -97.771982 234 40317ft 453kts
21-Mar-18 07:02 60.987541 -97.981873 234 40308ft 453kts
21-Mar-18 07:03 60.912587 -98.190361 234 40301ft 454kts
21-Mar-18 07:04 60.837320 -98.397849 233 40293ft 453kts
21-Mar-18 07:05 60.761497 -98.605010 233 40260ft 453kts
21-Mar-18 07:06 60.685612 -98.810505 233 40250ft 454kts
21-Mar-18 07:07 60.609357 -99.015189 233 40242ft 454kts
21-Mar-18 07:08 60.532561 -99.219519 233 40235ft 454kts
21-Mar-18 07:09 60.455679 -99.422301 233 40229ft 454kts
21-Mar-18 07:10 60.379033 -99.625017 232 40223ft 455kts
21-Mar-18 07:11 60.300782 -99.826423 232 40218ft 454kts
21-Mar-18 07:12 60.222828 -100.026491 233 40213ft 454kts
21-Mar-18 07:13 60.146423 -100.229653 233 40210ft 454kts
21-Mar-18 07:14 60.069745 -100.430861 233 40231ft 455kts
21-Mar-18 07:15 59.993349 -100.632113 234 40227ft 455kts
21-Mar-18 07:16 59.916905 -100.834183 233 40225ft 456kts
21-Mar-18 07:17 59.839692 -101.034163 233 40235ft 456kts
21-Mar-18 07:18 59.762048 -101.233189 232 40268ft 456kts
21-Mar-18 07:19 59.683794 -101.432018 232 40252ft 456kts
21-Mar-18 07:20 59.605468 -101.629342 232 40248ft 456kts
21-Mar-18 07:21 59.526818 -101.825817 232 40244ft 457kts
21-Mar-18 07:22 59.447672 -102.021874 232 40240ft 457kts
21-Mar-18 07:23 59.368419 -102.216564 232 40238ft 457kts
21-Mar-18 07:24 59.288566 -102.411097 232 40235ft 457kts
21-Mar-18 07:25 59.208726 -102.603995 231 40168ft 457kts
21-Mar-18 07:26 59.128252 -102.796821 231 40167ft 457kts
21-Mar-18 07:27 59.047924 -102.987728 231 40167ft 456kts
21-Mar-18 07:28 58.967290 -103.177806 231 40167ft 457kts
21-Mar-18 07:29 58.886073 -103.367704 231 40166ft 457kts
21-Mar-18 07:30 58.804845 -103.556098 230 40166ft 457kts
21-Mar-18 07:31 58.723337 -103.743628 230 40162ft 457kts
21-Mar-18 07:32 58.641284 -103.930899 230 40160ft 457kts
21-Mar-18 07:33 58.559241 -104.116662 230 40156ft 457kts
21-Mar-18 07:34 58.476696 -104.302082 230 40151ft 457kts
21-Mar-18 07:35 58.394098 -104.486156 230 40144ft 457kts
21-Mar-18 07:36 58.311217 -104.669415 230 40135ft 457kts
21-Mar-18 07:37 58.227837 -104.852339 230 40124ft 457kts
21-Mar-18 07:38 58.144459 -105.033835 230 40110ft 456kts
21-Mar-18 07:39 58.060895 -105.214333 229 40095ft 457kts
21-Mar-18 07:40 57.976738 -105.394709 229 40078ft 456kts
21-Mar-18 07:41 57.892681 -105.573496 229 40064ft 456kts
21-Mar-18 07:42 57.808066 -105.752098 229 40053ft 456kts
21-Mar-18 07:43 57.723501 -105.929243 229 40048ft 457kts
21-Mar-18 07:44 57.638797 -106.105603 229 40042ft 456kts
21-Mar-18 07:45 57.553904 -106.281780 229 40041ft 456kts
21-Mar-18 07:46 57.468416 -106.455876 229 40042ft 455kts
21-Mar-18 07:47 57.376617 -106.617311 219 40045ft 458kts
21-Mar-18 07:48 57.274581 -106.759356 219 40047ft 458kts
21-Mar-18 07:49 57.173580 -106.901905 219 40035ft 458kts
21-Mar-18 07:50 57.073387 -107.045988 219 40038ft 457kts
21-Mar-18 07:51 56.972517 -107.189184 219 40041ft 457kts
21-Mar-18 07:52 56.871855 -107.330619 219 40044ft 457kts
21-Mar-18 07:53 56.770969 -107.471308 219 40046ft 457kts
21-Mar-18 07:54 56.669562 -107.611730 219 40042ft 457kts
21-Mar-18 07:55 56.568504 -107.750701 219 40043ft 456kts
21-Mar-18 07:56 56.467244 -107.888996 219 40043ft 456kts
21-Mar-18 07:57 56.365607 -108.026857 218 40043ft 456kts
21-Mar-18 07:58 56.264265 -108.163384 218 40043ft 456kts
21-Mar-18 07:59 56.162240 -108.299901 218 40042ft 456kts
21-Mar-18 08:00 56.060483 -108.435142 218 40041ft 456kts
21-Mar-18 08:01 55.958564 -108.569690 218 40040ft 456kts
21-Mar-18 08:02 55.856182 -108.703944 218 40040ft 456kts
21-Mar-18 08:03 55.754000 -108.837044 217 40039ft 456kts
21-Mar-18 08:04 55.651338 -108.969883 217 40039ft 456kts
21-Mar-18 08:05 55.548925 -109.101525 217 40037ft 456kts
21-Mar-18 08:06 55.446385 -109.232465 217 40034ft 456kts
21-Mar-18 08:07 55.343332 -109.363198 217 40030ft 456kts
21-Mar-18 08:08 55.240426 -109.492893 217 40025ft 455kts
21-Mar-18 08:09 55.137460 -109.621823 217 40020ft 455kts
21-Mar-18 08:10 55.034100 -109.750409 217 40013ft 456kts
21-Mar-18 08:11 54.930846 -109.878038 217 40007ft 455kts
21-Mar-18 08:12 54.827528 -110.004926 217 40001ft 455kts
21-Mar-18 08:13 54.723856 -110.131440 217 39993ft 455kts
21-Mar-18 08:14 54.620342 -110.256960 217 39993ft 455kts
21-Mar-18 08:15 54.516356 -110.382247 217 39990ft 455kts
21-Mar-18 08:16 54.412678 -110.506379 217 39990ft 454kts
21-Mar-18 08:17 54.308844 -110.629921 217 39989ft 454kts
21-Mar-18 08:18 54.204619 -110.753153 216 39987ft 454kts
21-Mar-18 08:19 54.100659 -110.875305 216 39983ft 454kts
21-Mar-18 08:20 53.996752 -110.996647 216 39979ft 453kts
21-Mar-18 08:21 53.892777 -111.117317 217 39975ft 451kts
21-Mar-18 08:22 53.789095 -111.236917 217 39969ft 451kts
21-Mar-18 08:23 53.685407 -111.355796 216 39963ft 450kts
21-Mar-18 08:24 53.581416 -111.474303 216 39959ft 450kts
21-Mar-18 08:25 53.477659 -111.591832 216 39956ft 450kts
21-Mar-18 08:26 53.373474 -111.709140 216 39954ft 450kts
21-Mar-18 08:27 53.269534 -111.825472 216 39939ft 450kts
21-Mar-18 08:28 53.217898 -111.883004 216 39938ft 450kts
21-Mar-18 08:29 53.217898 -111.883004 216 39938ft 450kts
21-Mar-18 08:30 53.217898 -111.883004 216 39938ft 450kts
21-Mar-18 08:31 53.217898 -111.883004 216 39938ft 450kts
21-Mar-18 08:32 53.217898 -111.883004 216 39938ft 450kts
21-Mar-18 08:33 53.217898 -111.883004 216 39938ft 450kts
21-Mar-18 08:34 53.217898 -111.883004 216 39938ft 450kts
21-Mar-18 08:35 53.217898 -111.883004 216 39938ft 450kts
21-Mar-18 08:36 53.217898 -111.883004 216 39938ft 450kts
21-Mar-18 08:37 53.217898 -111.883004 216 39938ft 450kts
21-Mar-18 08:38 53.217898 -111.883004 216 39938ft 450kts
21-Mar-18 08:39 53.217898 -111.883004 216 39938ft 450kts
21-Mar-18 08:40 53.217898 -111.883004 216 39938ft 450kts
21-Mar-18 08:41 53.217898 -111.883004 216 39938ft 450kts
21-Mar-18 08:42 53.217898 -111.883004 216 39938ft 450kts
21-Mar-18 08:43 53.217898 -111.883004 216 39938ft 450kts
21-Mar-18 08:44 53.217898 -111.883004 216 39938ft 450kts
21-Mar-18 08:45 53.217898 -111.883004 216 39938ft 450kts
21-Mar-18 08:46 53.217898 -111.883004 216 39938ft 450kts
21-Mar-18 08:47 53.217898 -111.883004 216 39938ft 450kts
21-Mar-18 08:48 53.217898 -111.883004 216 39938ft 450kts
21-Mar-18 08:49 53.217898 -111.883004 216 39938ft 450kts
21-Mar-18 08:50 53.217898 -111.883004 216 39938ft 450kts
21-Mar-18 08:51 53.217898 -111.883004 216 39938ft 450kts
21-Mar-18 08:52 53.217898 -111.883004 216 39938ft 450kts
21-Mar-18 08:53 53.217898 -111.883004 216 39938ft 450kts
21-Mar-18 08:54 53.217898 -111.883004 216 39938ft 450kts
21-Mar-18 08:55 53.217898 -111.883004 216 39938ft 450kts
21-Mar-18 08:56 53.217898 -111.883004 216 39938ft 450kts
21-Mar-18 08:57 53.217898 -111.883004 216 39938ft 450kts
21-Mar-18 08:58 53.217898 -111.883004 216 39938ft 450kts
21-Mar-18 08:59 53.217898 -111.883004 216 39938ft 450kts
21-Mar-18 09:00 53.217898 -111.883004 216 39938ft 450kts
21-Mar-18 09:01 53.217898 -111.883004 216 39938ft 450kts
21-Mar-18 09:02 53.217898 -111.883004 216 39938ft 450kts
21-Mar-18 09:03 53.217898 -111.883004 216 39938ft 450kts
21-Mar-18 09:04 53.217898 -111.883004 216 39938ft 450kts
21-Mar-18 09:05 53.217898 -111.883004 216 39938ft 450kts
21-Mar-18 09:06 53.217898 -111.883004 216 39938ft 450kts
21-Mar-18 09:07 53.217898 -111.883004 216 39938ft 450kts
21-Mar-18 09:08 53.217898 -111.883004 216 39938ft 450kts
21-Mar-18 09:09 53.217898 -111.883004 216 39938ft 450kts
21-Mar-18 09:10 53.217898 -111.883004 216 39938ft 450kts
21-Mar-18 09:11 53.217898 -111.883004 216 39938ft 450kts
21-Mar-18 09:12 53.217898 -111.883004 216 39938ft 450kts
21-Mar-18 09:13 53.217898 -111.883004 216 39938ft 450kts
21-Mar-18 09:14 53.217898 -111.883004 216 39938ft 450kts
21-Mar-18 09:15 53.217898 -111.883004 216 39938ft 450kts
21-Mar-18 09:16 53.217898 -111.883004 216 39938ft 450kts
21-Mar-18 09:17 53.217898 -111.883004 216 39938ft 450kts
21-Mar-18 09:18 53.217898 -111.883004 216 39938ft 450kts
21-Mar-18 09:19 53.217898 -111.883004 216 39938ft 450kts
21-Mar-18 09:20 53.217898 -111.883004 216 39938ft 450kts
21-Mar-18 09:21 53.217898 -111.883004 216 39938ft 450kts
21-Mar-18 09:22 53.217898 -111.883004 216 39938ft 450kts
21-Mar-18 09:23 53.217898 -111.883004 216 39938ft 450kts
21-Mar-18 09:24 53.217898 -111.883004 216 39938ft 450kts
21-Mar-18 09:25 53.217898 -111.883004 216 39938ft 450kts
21-Mar-18 09:26 53.217898 -111.883004 216 39938ft 450kts
21-Mar-18 09:27 53.217898 -111.883004 216 39938ft 450kts
21-Mar-18 09:28 53.217898 -111.883004 216 39938ft 450kts
21-Mar-18 09:29 53.217898 -111.883004 216 39938ft 450kts
21-Mar-18 09:30 53.217898 -111.883004 216 39938ft 450kts
21-Mar-18 09:31 53.217898 -111.883004 216 39938ft 450kts
21-Mar-18 09:32 53.217898 -111.883004 216 39938ft 450kts
21-Mar-18 09:33 53.217898 -111.883004 216 39938ft 450kts
21-Mar-18 09:34 53.217898 -111.883004 216 39938ft 450kts
21-Mar-18 09:35 53.217898 -111.883004 216 39938ft 450kts
21-Mar-18 09:36 53.217898 -111.883004 216 39938ft 450kts
21-Mar-18 09:37 53.217898 -111.883004 216 39938ft 450kts
21-Mar-18 09:38 53.217898 -111.883004 216 39938ft 450kts
21-Mar-18 09:39 53.217898 -111.883004 216 39938ft 450kts
21-Mar-18 09:40 53.217898 -111.883004 216 39938ft 450kts
21-Mar-18 09:41 53.217898 -111.883004 216 39938ft 450kts
21-Mar-18 09:42 53.217898 -111.883004 216 39938ft 450kts
21-Mar-18 09:43 53.217898 -111.883004 216 39938ft 450kts
21-Mar-18 09:44 53.217898 -111.883004 216 39938ft 450kts
21-Mar-18 09:45 53.217898 -111.883004 216 39938ft 450kts
21-Mar-18 09:46 53.217898 -111.883004 216 39938ft 450kts
21-Mar-18 09:47 53.217898 -111.883004 216 39938ft 450kts
21-Mar-18 09:48 53.217898 -111.883004 216 39938ft 450kts
21-Mar-18 09:49 53.217898 -111.883004 216 39938ft 450kts
21-Mar-18 09:50 53.217898 -111.883004 216 39938ft 450kts
21-Mar-18 09:51 53.217898 -111.883004 216 39938ft 450kts
21-Mar-18 09:52 53.217898 -111.883004 216 39938ft 450kts
21-Mar-18 09:53 53.217898 -111.883004 216 39938ft 450kts
21-Mar-18 09:54 53.217898 -111.883004 216 39938ft 450kts
21-Mar-18 09:55 53.217898 -111.883004 216 39938ft 450kts
21-Mar-18 09:56 53.217898 -111.883004 216 39938ft 450kts
21-Mar-18 09:57 53.217898 -111.883004 216 39938ft 450kts
21-Mar-18 09:58 53.217898 -111.883004 216 39938ft 450kts
21-Mar-18 09:59 53.217898 -111.883004 216 39938ft 450kts
21-Mar-18 10:00 53.217898 -111.883004 216 39938ft 450kts
21-Mar-18 10:01 53.217898 -111.883004 216 39938ft 450kts
21-Mar-18 10:02 53.217898 -111.883004 216 39938ft 450kts
21-Mar-18 10:03 53.217898 -111.883004 216 39938ft 450kts
21-Mar-18 10:04 53.217898 -111.883004 216 39938ft 450kts
21-Mar-18 10:05 53.217898 -111.883004 216 39938ft 450kts
21-Mar-18 10:06 53.217898 -111.883004 216 39938ft 450kts
21-Mar-18 10:07 53.217898 -111.883004 216 39938ft 450kts
21-Mar-18 10:08 53.217898 -111.883004 216 39938ft 450kts
21-Mar-18 10:09 53.217898 -111.883004 216 39938ft 450kts
21-Mar-18 10:10 53.217898 -111.883004 216 39938ft 450kts
21-Mar-18 10:11 53.217898 -111.883004 216 39938ft 450kts
21-Mar-18 10:12 53.217898 -111.883004 216 39938ft 450kts
21-Mar-18 10:13 53.217898 -111.883004 216 39938ft 450kts
21-Mar-18 10:14 53.217898 -111.883004 216 39938ft 450kts
21-Mar-18 10:15 53.217898 -111.883004 216 39938ft 450kts
21-Mar-18 10:16 53.217898 -111.883004 216 39938ft 450kts
21-Mar-18 10:17 53.217898 -111.883004 216 39938ft 450kts
21-Mar-18 10:18 53.204193 -111.898252 216 39954ft 449kts
21-Mar-18 10:19 53.114412 -111.997813 216 39965ft 447kts
21-Mar-18 10:20 53.011484 -112.111331 216 39743ft 432kts
21-Mar-18 10:21 52.911634 -112.220827 216 39734ft 445kts
21-Mar-18 10:22 52.807493 -112.334376 216 39043ft 440kts
21-Mar-18 10:23 52.705843 -112.444570 216 37046ft 431kts
21-Mar-18 10:24 52.607204 -112.550915 217 35346ft 418kts
21-Mar-18 10:25 52.511178 -112.653898 218 33733ft 404kts
21-Mar-18 10:26 52.419139 -112.752718 217 32332ft 387kts
21-Mar-18 10:27 52.330117 -112.846853 218 30843ft 375kts
21-Mar-18 10:28 52.242833 -112.936653 211 29338ft 368kts
21-Mar-18 10:29 52.144183 -112.985580 199 27686ft 371kts
21-Mar-18 10:30 52.044720 -113.026443 200 26066ft 364kts
21-Mar-18 10:31 51.946993 -113.067342 199 24205ft 370kts
21-Mar-18 10:32 51.844119 -113.110723 199 22375ft 387kts
21-Mar-18 10:33 51.740536 -113.154291 198 21223ft 380kts
21-Mar-18 10:34 51.638936 -113.196460 198 19244ft 372kts
21-Mar-18 10:35 51.540119 -113.237211 197 17251ft 362kts
21-Mar-18 10:36 51.455893 -113.311575 225 15205ft 348kts
21-Mar-18 10:37 51.391646 -113.426370 231 13283ft 346kts
21-Mar-18 10:38 51.329936 -113.544714 230 11328ft 346kts
21-Mar-18 10:39 51.270693 -113.657777 230 10576ft 315kts
21-Mar-18 10:40 51.217099 -113.759913 229 10031ft 288kts
21-Mar-18 10:41 51.160847 -113.843489 195 9094ft 263kts
21-Mar-18 10:42 51.092905 -113.849020 178 8238ft 236kts
21-Mar-18 10:43 51.030586 -113.848524 178 7961ft 216kts
21-Mar-18 10:44 50.980994 -113.848543 179 7042ft 229kts
21-Mar-18 10:45 50.920222 -113.859362 220 6283ft 213kts
21-Mar-18 10:46 50.922733 -113.940157 283 6317ft 187kts
21-Mar-18 10:47 50.954722 -113.992350 356 6186ft 185kts
21-Mar-18 10:48 51.003951 -113.990568 0 5448ft 166kts
21-Mar-18 10:49 51.046780 -113.990484 1 4802ft 143kts
21-Mar-18 10:50 51.086410 -113.990352 1 4003ft 143kts
21-Mar-18 10:51 51.124233 -113.990430 1 3572ft 132kts
21-Mar-18 10:52 51.138600 -113.991096 274 3571ft 13kts
21-Mar-18 10:53 51.136332 -113.993011 175 3571ft 10kts
21-Mar-18 10:54 51.133755 -113.993011 180 3571ft 8kts
21-Mar-18 10:55 51.131625 -113.993845 257 3571ft 9kts
21-Mar-18 10:56 51.131606 -113.997430 268 3571ft 7kts
21-Mar-18 10:57 51.131581 -114.000311 268 3571ft 5kts
21-Mar-18 10:58 51.130824 -114.001906 222 3571ft 1kts
21-Mar-18 10:59 51.130789 -114.001957 222 3571ft 0kts
21-Mar-18 11:00 51.130789 -114.001957 222 3571ft 0kts
21-Mar-18 11:01 51.130789 -114.001957 222 3571ft 0kts
21-Mar-18 11:02 51.130789 -114.001957 222 3571ft 0kts
21-Mar-18 11:03 51.130789 -114.001957 222 3571ft 0kts
21-Mar-18 11:04 51.130789 -114.001957 222 3571ft 0kts
21-Mar-18 11:05 51.130789 -114.001957 222 3571ft 0kts
21-Mar-18 11:06 51.130789 -114.001957 222 3571ft 0kts
21-Mar-18 11:07 51.130789 -114.001957 222 3571ft 0kts

Navigation Log

Ident Type
Flight plan parsing failed, navigation log unavailable